TX42 weather

Fair Weather Field
Monaville, Texas, United States

Public forecast

Using degrees Fahrenheit for public forecast. Weather courtesy of forecast.io.

METAR (pilot weather report)

Closest report is Houston Executive Airport, 10.7 nm (19.9 km) SE. Retrieved 2019/07/15 19:35 UTC (17 minutes ago):

KTME 151935Z AUTO 20014KT 8SM SCT046 SCT060 BKN075 35/25 A2994 RMK AO2

TAF (pilot weather forecast)

Forecast is more than 12 hours old.

Closest forecast is David Wayne Hooks Memorial Airport, 26.4 nm (48.9 km) ENE. Retrieved 2017/02/07 12:51 UTC (2 years ago):

TAF KDWH 071148Z 0712/0812 20009G15KT P6SM SCT022 OVC030 TEMPO 0712/0715 BKN018 FM071500 23010KT P6SM BKN015 FM071900 25010KT P6SM SCT025 FM080100 22005KT P6SM SCT250 TEMPO 0807/0809 3SM BR BKN013 FM080900 VRB03KT 2SM BR OVC008